createdAt,value
2022-08-03T00:04:21.202Z,100288.38
2022-08-03T00:09:35.993Z,100285.31
2022-08-03T00:14:37.637Z,100288.38
2022-08-03T00:19:39.281Z,100291.69
2022-08-03T00:24:40.831Z,100290.03
2022-08-03T00:29:59.670Z,100289.22
2022-08-03T00:35:07.869Z,100287.28
2022-08-03T00:40:12.555Z,100277.56
2022-08-03T00:45:14.432Z,100285.03
2022-08-03T00:50:17.298Z,100278.38
2022-08-03T00:55:19.141Z,100270.09
2022-08-03T01:00:23.667Z,100271.69
2022-08-03T01:12:00.048Z,100255.03
2022-08-03T01:17:16.472Z,100252.81
2022-08-03T01:22:50.015Z,100243.94
2022-08-03T01:28:39.051Z,100238.66
2022-08-03T01:33:49.903Z,100237.53
2022-08-03T01:38:56.279Z,100236.69
2022-08-03T01:44:29.986Z,100240.53
2022-08-03T01:49:21.350Z,100238.88
2022-08-03T01:54:25.723Z,100231.91
2022-08-03T01:59:29.174Z,100229.69
2022-08-03T02:04:30.936Z,100224.41
2022-08-03T02:09:35.030Z,100224.31
2022-08-03T02:14:39.333Z,100233.09
2022-08-03T02:19:42.774Z,100232.78
2022-08-03T02:24:44.470Z,100235.25
2022-08-03T02:30:02.696Z,100239.38
2022-08-03T02:35:10.951Z,100238.25
2022-08-03T02:40:14.920Z,100232.38
2022-08-03T02:45:18.309Z,100234.78
2022-08-03T02:50:21.946Z,100224.22
2022-08-03T02:55:26.051Z,100226.69
2022-08-03T03:00:28.738Z,100223.91
2022-08-03T03:05:55.856Z,100218.28
2022-08-03T03:11:00.548Z,100208.56
2022-08-03T03:16:05.918Z,100208.84
2022-08-03T03:21:09.889Z,100209.16
2022-08-03T03:26:14.318Z,100208.59
2022-08-03T03:31:16.141Z,100205.59
2022-08-03T03:36:18.503Z,100212.81
2022-08-03T03:41:20.310Z,100213.69
2022-08-03T03:46:22.567Z,100226.16
2022-08-03T03:51:24.127Z,100223.91
2022-08-03T03:56:26.454Z,100227.97
2022-08-03T04:01:28.693Z,100225.13
2022-08-03T04:06:48.570Z,100232.22
2022-08-03T04:11:54.964Z,100239.63
2022-08-03T04:17:03.516Z,100232.13
2022-08-03T04:22:14.249Z,100236.53
2022-08-03T04:27:23.559Z,100229.41
2022-08-03T04:32:28.776Z,100224.75
2022-08-03T04:37:43.207Z,100231.31
2022-08-03T04:42:46.094Z,100237.91
2022-08-03T04:47:48.679Z,100241.03
2022-08-03T04:52:50.267Z,100253.69
2022-08-03T04:57:51.795Z,100253.75
2022-08-03T05:02:54.303Z,100260.88
2022-08-03T05:07:56.344Z,100273.78
2022-08-03T05:12:57.878Z,100280.44
2022-08-03T05:17:59.609Z,100296.84
2022-08-03T05:23:01.953Z,100301.50
2022-08-03T05:28:03.810Z,100325.38
2022-08-03T05:33:05.458Z,100329.34
2022-08-03T05:38:07.087Z,100340.28
2022-08-03T05:43:10.964Z,100353.00
2022-08-03T05:48:12.652Z,100365.09
2022-08-03T05:53:14.257Z,100374.34
2022-08-03T05:58:17.175Z,100371.03
2022-08-03T06:03:20.022Z,100372.88
2022-08-03T06:08:23.598Z,100377.94
2022-08-03T06:13:25.175Z,100379.75
2022-08-03T06:18:26.752Z,100386.09
2022-08-03T06:23:54.830Z,100388.47
2022-08-03T06:28:52.235Z,100390.16
2022-08-03T06:34:34.754Z,100398.00
2022-08-03T06:39:18.435Z,100407.09
2022-08-03T06:44:20.192Z,100420.53
2022-08-03T06:49:21.897Z,100414.78
2022-08-03T06:54:24.435Z,100424.75
2022-08-03T07:00:07.394Z,100434.34
2022-08-03T07:04:50.512Z,100425.91
2022-08-03T07:09:56.893Z,100433.16
2022-08-03T07:15:02.651Z,100432.78
2022-08-03T07:20:07.463Z,100433.22
2022-08-03T07:25:09.450Z,100446.97
2022-08-03T07:30:12.001Z,100459.97
2022-08-03T07:35:22.753Z,100459.00
2022-08-03T07:40:30.754Z,100451.63
2022-08-03T07:45:34.086Z,100445.78
2022-08-03T07:50:35.723Z,100461.22
2022-08-03T07:55:37.346Z,100462.06
2022-08-03T08:00:39.339Z,100455.88
2022-08-03T08:05:40.927Z,100475.16
2022-08-03T08:10:42.533Z,100460.84
2022-08-03T08:16:00.939Z,100450.00
2022-08-03T08:21:03.408Z,100465.28
2022-08-03T08:26:05.021Z,100487.19
2022-08-03T08:31:06.702Z,100473.06
2022-08-03T08:36:10.951Z,100470.28
2022-08-03T08:41:17.327Z,100487.66
2022-08-03T08:46:23.799Z,100471.69
2022-08-03T08:51:50.556Z,100466.84
2022-08-03T08:56:56.039Z,100464.00
2022-08-03T09:01:58.618Z,100467.56
2022-08-03T09:07:19.205Z,100477.88
2022-08-03T09:12:40.864Z,100463.78
2022-08-03T09:17:46.396Z,100471.75
2022-08-03T09:23:44.619Z,100466.81
2022-08-03T09:29:00.005Z,100471.38
2022-08-03T09:34:01.247Z,100461.81
2022-08-03T09:39:10.936Z,100444.25
2022-08-03T09:44:24.119Z,100465.63
2022-08-03T09:49:26.477Z,100452.78
2022-08-03T09:54:32.604Z,100435.25
2022-08-03T09:59:34.689Z,100465.09
2022-08-03T10:04:47.166Z,100449.56
2022-08-03T10:10:29.587Z,100448.47
2022-08-03T10:16:23.291Z,100440.81
2022-08-03T10:20:56.489Z,100467.59
2022-08-03T10:26:01.747Z,100443.44
2022-08-03T10:31:07.638Z,100438.03
2022-08-03T10:36:10.111Z,100441.59
2022-08-03T10:41:12.818Z,100454.59
2022-08-03T10:46:17.346Z,100414.19
2022-08-03T10:51:19.719Z,100415.44
2022-08-03T10:56:51.748Z,100432.06
2022-08-03T11:01:58.525Z,100406.31
2022-08-03T11:07:19.889Z,100370.94
2022-08-03T11:12:33.290Z,100379.38
2022-08-03T11:17:46.238Z,100393.13
2022-08-03T11:22:59.559Z,100387.34
2022-08-03T11:28:28.242Z,100389.84
2022-08-03T11:33:30.544Z,100390.03
2022-08-03T11:38:32.137Z,100351.66
2022-08-03T11:43:37.657Z,100346.28
2022-08-03T11:48:43.067Z,100331.00
2022-08-03T11:53:47.700Z,100347.06
2022-08-03T11:59:17.066Z,100363.94
2022-08-03T12:04:16.280Z,100361.16
2022-08-03T12:09:17.966Z,100364.63
2022-08-03T12:14:49.909Z,100362.66
2022-08-03T12:19:44.687Z,100393.69
2022-08-03T12:24:47.899Z,100372.91
2022-08-03T12:29:57.078Z,100367.28
2022-08-03T12:35:01.894Z,100377.72
2022-08-03T12:40:10.627Z,100392.56
2022-08-03T12:45:25.910Z,100382.25
2022-08-03T12:50:33.157Z,100367.16
2022-08-03T12:55:57.708Z,100320.25
2022-08-03T13:00:57.689Z,100312.41
2022-08-03T13:05:59.283Z,100338.44
2022-08-03T13:11:21.213Z,100339.19
2022-08-03T13:16:23.233Z,100329.59
2022-08-03T13:21:24.815Z,100342.97
2022-08-03T13:26:26.369Z,100352.09
2022-08-03T13:31:27.968Z,100338.38
2022-08-03T13:36:52.871Z,100347.28
2022-08-03T13:41:54.195Z,100338.66
2022-08-03T13:46:55.842Z,100308.84
2022-08-03T13:51:57.750Z,100315.84
2022-08-03T13:58:11.591Z,100336.66
2022-08-03T14:02:21.702Z,100310.59
2022-08-03T14:07:23.340Z,100309.16
2022-08-03T14:12:24.952Z,100295.22
2022-08-03T14:17:26.490Z,100279.00
2022-08-03T14:22:43.982Z,100288.19
2022-08-03T14:27:45.598Z,100296.03
2022-08-03T14:32:47.135Z,100272.16
2022-08-03T14:37:48.721Z,100264.53
2022-08-03T14:42:50.351Z,100261.88
2022-08-03T14:50:30.253Z,100250.28
2022-08-03T14:53:13.712Z,100293.78
2022-08-03T14:58:19.647Z,100259.69
2022-08-03T15:03:24.725Z,100246.88
2022-08-03T15:08:26.635Z,100241.56
2022-08-03T15:13:28.611Z,100263.38
2022-08-03T15:18:30.362Z,100230.94
2022-08-03T15:23:32.005Z,100218.41
2022-08-03T15:28:33.567Z,100209.50
2022-08-03T15:33:35.417Z,100197.31
2022-08-03T15:38:37.059Z,100199.81
2022-08-03T15:43:38.757Z,100210.97
2022-08-03T15:48:41.279Z,100202.44
2022-08-03T15:53:43.067Z,100207.00
2022-08-03T15:59:04.173Z,100194.72
2022-08-03T16:04:06.236Z,100173.97
2022-08-03T16:09:24.069Z,100176.00
2022-08-03T16:14:34.805Z,100175.13
2022-08-03T16:19:42.056Z,100158.06
2022-08-03T16:24:44.451Z,100153.09
2022-08-03T16:29:46.068Z,100144.94
2022-08-03T16:34:48.222Z,100118.53
2022-08-03T16:39:49.894Z,100111.59
2022-08-03T16:44:51.538Z,100113.56
2022-08-03T16:49:56.274Z,100110.69
2022-08-03T16:54:58.263Z,100085.41
2022-08-03T17:00:00.212Z,100092.28
2022-08-03T17:05:01.737Z,100077.28
2022-08-03T17:10:04.498Z,100062.19
2022-08-03T17:15:10.635Z,100051.22
2022-08-03T17:20:15.031Z,100053.56
2022-08-03T17:26:04.095Z,100056.34
2022-08-03T17:30:58.431Z,100048.94
2022-08-03T17:36:01.294Z,100044.34
2022-08-03T17:41:10.558Z,100042.25
2022-08-03T17:46:13.895Z,100015.78
2022-08-03T17:51:46.238Z,100006.31
2022-08-03T17:56:58.225Z,100008.16
2022-08-03T18:02:30.666Z,100004.63
2022-08-03T18:07:41.162Z,100002.84
2022-08-03T18:13:11.050Z,99991.72
2022-08-03T18:18:15.930Z,99984.63
2022-08-03T18:23:24.940Z,99969.38
2022-08-03T18:28:39.221Z,99960.59
2022-08-03T18:34:20.337Z,99956.28
2022-08-03T18:39:04.806Z,99946.88
2022-08-03T18:44:09.637Z,99935.03
2022-08-03T18:49:41.320Z,99924.66
2022-08-03T18:55:09.345Z,99907.00
2022-08-03T19:00:42.700Z,99904.09
2022-08-03T19:06:02.803Z,99897.56
2022-08-03T19:11:15.531Z,99881.31
2022-08-03T19:16:39.405Z,99879.72
2022-08-03T19:21:41.314Z,99893.88
2022-08-03T19:26:42.881Z,99902.06
2022-08-03T19:31:57.969Z,99925.50
2022-08-03T19:37:02.529Z,99924.94
2022-08-03T19:47:51.380Z,99931.09
2022-08-03T19:52:54.089Z,99929.75
2022-08-03T19:57:57.965Z,99948.75
2022-08-03T20:03:02.609Z,99946.72
2022-08-03T20:08:06.640Z,99940.91
2022-08-03T20:13:13.146Z,99945.66
2022-08-03T20:18:20.744Z,99947.03
2022-08-03T20:23:26.429Z,99955.34
2022-08-03T20:28:50.214Z,99962.13
2022-08-03T20:33:52.274Z,99966.59
2022-08-03T20:38:57.649Z,99986.66
2022-08-03T20:44:00.976Z,99977.09
2022-08-03T20:49:04.638Z,99979.56
2022-08-03T20:54:09.861Z,99989.25
2022-08-03T20:59:35.025Z,99984.78
2022-08-03T21:04:49.090Z,99984.28
2022-08-03T21:09:52.834Z,99991.03
2022-08-03T21:13:02.803Z,99922.63
2022-08-03T21:15:03.888Z,99984.47
2022-08-03T21:20:07.906Z,99985.81
2022-08-03T21:25:11.280Z,99986.09
2022-08-03T21:30:13.123Z,99973.41
2022-08-03T21:35:15.794Z,99967.31
2022-08-03T21:40:17.508Z,99971.09
2022-08-03T21:45:19.112Z,99962.03
2022-08-03T21:50:21.060Z,99968.44
2022-08-03T21:55:26.368Z,99961.38
2022-08-03T22:00:28.150Z,99967.41
2022-08-03T22:05:43.579Z,99962.97
2022-08-03T22:10:47.403Z,99955.69
2022-08-03T22:15:49.168Z,99958.66
2022-08-03T22:20:52.264Z,99957.31
2022-08-03T22:25:56.491Z,99962.63
2022-08-03T22:31:00.102Z,99969.03
2022-08-03T22:36:24.038Z,99969.84
2022-08-03T22:41:29.477Z,99985.22
2022-08-03T22:46:33.864Z,99987.94
2022-08-03T22:51:36.151Z,99993.78
2022-08-03T22:56:41.328Z,99975.81
2022-08-03T23:01:44.437Z,99959.47
2022-08-03T23:06:50.615Z,99952.63
2022-08-03T23:11:55.269Z,99949.88
2022-08-03T23:17:02.775Z,99949.34
2022-08-03T23:22:05.844Z,99946.41
2022-08-03T23:27:08.542Z,99952.00
2022-08-03T23:32:10.483Z,99953.81
2022-08-03T23:37:15.084Z,99949.25
2022-08-03T23:42:18.690Z,99948.34
2022-08-03T23:47:20.468Z,99943.19
2022-08-03T23:52:46.160Z,99936.59
2022-08-03T23:58:04.007Z,99936.81
